Hauptseite
METAR-TAF:

METAR-TAF

Flughäfen :

Kosrae, Mikronesien

Flughafen Kosrae

Breite: 05-21N, Länge: 162-57E, Höhe: 3 m

Beobachtung

Neuester Wetterbericht von vor 9 Stunden und 25 Minuten, um 02:50 UTC
Wind 15 kt aus Nordost
Temperatur 31°C
Luftfeuchtigkeit 71%
Luftdruck 1009 hPa
Sichtweite: 16.1 km
Aufgelockert bewölkt in der Höhe von 2100 ft, Towering cumulus.
Durchbrochene Bewölkung in der Höhe von 13000 ft
Geschlossene Wolkendecke in der Höhe von 30000 ft

METAR: PTSA 280250Z 05015KT 10SM SCT021TCU BKN130 OVC300 31/25 A2980 RMK TCU SE-S

Zeit: 23:15 (12:15 UTC)

Prognose

Neuester Wetterbericht von vor 12 Stunden und 45 Minuten, um 23:30 UTC
Gültige Prognose vom 28 um 00 UTC bis 28 um 24 UTC
Wind 13 kt aus Ost/Nordost
Sichtweite: 10 km
Aufgelockert bewölkt in der Höhe von 1700 ft
Durchbrochene Bewölkung in der Höhe von 13000 ft

TAF: PTSA 272330Z 2800/2824 07013KT P6SM SCT017 BKN130

Wetterbeobachtungen und Prognosen von mehr als 4000 Flughäfen (METAR und TAF Bericht).

Die verfügbaren Stationen werden durch gelbe und rote Markierungen auf der Karte dargestellt.

Führen Sie die Maus auf sie, um den Namen der Station zu sehen.

Darauf klicken, um die Beobachtung von Wetterbeobachtungen und Prognosen zu sehen.

Um die Karte zu ändern : klicken Sie auf den grünen Tasten mit einem schwarzen Kreuz Zum Vergrößern, auf den grünen Button mit einem Gedankenstrich zu verkleinern, oder auf die grünen Pfeile für benachbarte Karten.


METAR-TAF: